Time;durP1;ratioP1;P1;durP2;ratioP2;P2;SDS_P1;SDS_P2;PMS_P1;PMS_P2;Temp;Humidity;BMP_temperature;BMP_pressure;BME280_temperature;BME280_humidity;BME280_pressure;Samples;Min_cycle;Max_cycle;Signal;HPM_P1;HPM_P2
2023/04/03 00:00:46;;;;;;;;;15.00;13.75;;;;;22.54;37.61;101990.69;5022577;28;74544;-78
2023/04/03 00:03:11;;;;;;;;;12.50;11.00;;;;;22.60;37.66;102001.94;5023027;28;54487;-78
2023/04/03 00:05:37;;;;;;;;;16.00;13.75;;;;;22.57;37.84;101997.63;5016033;28;67142;-77
2023/04/03 00:08:04;;;;;;;;;13.00;11.00;;;;;22.60;37.88;101999.28;5038028;28;68133;-78
2023/04/03 00:10:30;;;;;;;;;12.00;9.50;;;;;22.54;37.32;101992.47;5035519;28;45491;-78
2023/04/03 00:12:55;;;;;;;;;15.00;11.00;;;;;22.54;37.92;101988.00;5031737;28;48014;-77
2023/04/03 00:15:20;;;;;;;;;13.25;11.50;;;;;22.58;38.05;101998.50;5024664;28;45395;-77
2023/04/03 00:17:46;;;;;;;;;14.75;12.50;;;;;22.59;37.74;102000.22;5006963;28;69228;-77
2023/04/03 00:20:11;;;;;;;;;14.50;10.75;;;;;22.55;37.73;101991.53;5034575;28;45437;-78
2023/04/03 00:22:37;;;;;;;;;15.00;13.00;;;;;22.56;37.61;101998.59;5022895;28;53973;-77
2023/04/03 00:25:03;;;;;;;;;10.00;10.00;;;;;22.50;38.06;101990.94;5033305;28;45471;-77
2023/04/03 00:27:28;;;;;;;;;11.00;9.75;;;;;22.48;37.61;101993.69;5015543;28;45372;-78
2023/04/03 00:29:54;;;;;;;;;12.75;10.25;;;;;22.58;38.15;102006.53;5029215;28;53983;-79
2023/04/03 00:32:19;;;;;;;;;10.00;10.00;;;;;22.58;37.54;102001.19;5039902;28;70376;-79
2023/04/03 00:34:44;;;;;;;;;11.75;10.00;;;;;22.58;37.69;102003.84;5032826;28;45472;-78
2023/04/03 00:37:10;;;;;;;;;12.00;11.50;;;;;22.54;37.41;101997.81;5024436;28;45330;-79
2023/04/03 00:39:35;;;;;;;;;9.75;9.50;;;;;22.56;37.37;102006.59;5033838;28;45631;-78
2023/04/03 00:42:00;;;;;;;;;10.25;8.25;;;;;22.56;37.74;102002.13;5037481;28;64945;-78
2023/04/03 00:44:35;;;;;;;;;10.00;8.75;;;;;22.56;37.83;101998.59;5009456;28;70067;-78
2023/04/03 00:47:02;;;;;;;;;9.25;9.25;;;;;22.56;37.80;101995.94;5039262;28;45378;-78
2023/04/03 00:49:28;;;;;;;;;8.00;8.00;;;;;22.58;37.36;102006.53;5048375;28;45496;-79
2023/04/03 00:51:54;;;;;;;;;9.75;9.00;;;;;22.56;37.99;102003.94;5025772;28;63863;-79
2023/04/03 00:54:19;;;;;;;;;9.00;9.00;;;;;22.54;37.73;102006.69;5017371;28;45653;-78
2023/04/03 00:56:45;;;;;;;;;10.50;7.75;;;;;22.55;37.22;102005.72;5050946;28;45451;-78
2023/04/03 00:59:18;;;;;;;;;9.25;8.00;;;;;22.54;37.66;102006.69;5024596;28;45550;-78
2023/04/03 01:01:43;;;;;;;;;8.50;8.00;;;;;22.52;37.73;101991.69;5018869;28;47874;-78
2023/04/03 01:04:30;;;;;;;;;9.50;8.75;;;;;22.55;37.55;101995.06;5046436;28;45420;-78
2023/04/03 01:06:58;;;;;;;;;10.50;9.00;;;;;22.54;37.61;101989.78;5020003;28;45353;-78
2023/04/03 01:09:24;;;;;;;;;8.25;7.25;;;;;22.53;37.72;101986.28;5040708;28;45863;-78
2023/04/03 01:11:49;;;;;;;;;9.75;9.00;;;;;22.56;37.63;101990.59;5044299;28;45350;-78
2023/04/03 01:14:15;;;;;;;;;9.25;8.50;;;;;22.52;37.46;101986.38;5028763;28;45364;-77
2023/04/03 01:16:40;;;;;;;;;9.25;8.00;;;;;22.55;37.78;101989.72;5035654;28;45418;-78
2023/04/03 01:19:09;;;;;;;;;8.25;6.75;;;;;22.51;37.89;101974.84;5039270;28;72115;-78
2023/04/03 01:21:53;;;;;;;;;10.25;9.00;;;;;22.54;37.53;101985.34;5032286;28;45331;-76
2023/04/03 01:24:25;;;;;;;;;7.75;6.50;;;;;22.55;37.31;101983.53;5036528;28;45502;-76
2023/04/03 01:26:50;;;;;;;;;8.00;5.75;;;;;22.53;37.65;101986.28;5024648;28;45358;-76
2023/04/03 01:29:16;;;;;;;;;9.50;7.25;;;;;22.53;37.72;101985.44;5032817;28;45542;-79
2023/04/03 01:31:50;;;;;;;;;10.50;7.50;;;;;22.53;37.38;101986.28;5033074;28;45416;-79
2023/04/03 01:34:15;;;;;;;;;8.50;8.50;;;;;22.53;37.28;101983.63;5027581;28;45496;-79
2023/04/03 01:36:41;;;;;;;;;10.00;7.75;;;;;22.52;37.72;101978.34;5039938;28;45309;-79
2023/04/03 01:39:06;;;;;;;;;7.50;5.75;;;;;22.52;37.43;101981.91;5032175;28;73808;-79
2023/04/03 01:41:35;;;;;;;;;7.00;6.00;;;;;22.53;37.53;101980.09;5030617;28;46037;-79
2023/04/03 01:44:01;;;;;;;;;7.50;5.50;;;;;22.52;37.40;101973.91;5024018;28;45760;-79
2023/04/03 01:46:26;;;;;;;;;7.00;7.00;;;;;22.52;37.68;101981.03;5034912;28;45412;-77
2023/04/03 01:48:52;;;;;;;;;7.50;6.75;;;;;22.44;37.11;101960.13;5033279;28;45535;-77
2023/04/03 01:51:17;;;;;;;;;8.00;6.50;;;;;22.53;37.38;101980.94;5010639;28;46610;-77
2023/04/03 01:53:43;;;;;;;;;8.75;6.75;;;;;22.49;37.50;101978.56;5043421;28;45624;-77
2023/04/03 01:56:08;;;;;;;;;6.00;6.00;;;;;22.51;37.05;101982.84;5022603;28;45446;-77
2023/04/03 01:58:34;;;;;;;;;9.50;8.50;;;;;22.52;37.75;101984.59;5049244;28;61381;-77
2023/04/03 02:01:00;;;;;;;;;7.50;5.00;;;;;22.53;37.16;101980.94;5013203;28;47231;-77
2023/04/03 02:03:26;;;;;;;;;8.75;6.25;;;;;22.52;37.58;101970.34;5032599;28;45550;-77
2023/04/03 02:05:51;;;;;;;;;6.00;6.00;;;;;22.50;37.17;101972.25;5027185;28;45507;-77
2023/04/03 02:08:19;;;;;;;;;7.75;6.25;;;;;22.49;37.15;101973.22;5032042;28;45357;-78
2023/04/03 02:10:48;;;;;;;;;8.00;6.00;;;;;22.49;37.29;101971.41;5036921;28;45317;-78
2023/04/03 02:13:13;;;;;;;;;8.50;7.25;;;;;22.50;37.03;101969.59;5020155;28;45989;-77
2023/04/03 02:15:39;;;;;;;;;7.00;7.00;;;;;22.50;37.29;101980.25;5046447;28;60689;-78
2023/04/03 02:18:05;;;;;;;;;6.50;5.75;;;;;22.50;37.20;101978.44;5039559;28;45537;-77
2023/04/03 02:20:30;;;;;;;;;5.25;4.00;;;;;22.51;37.16;101982.84;5038076;28;46323;-76
2023/04/03 02:22:55;;;;;;;;;5.25;4.75;;;;;22.51;37.24;101974.00;5043085;28;47802;-76
2023/04/03 02:25:21;;;;;;;;;5.25;5.25;;;;;22.50;37.52;101977.59;5037461;28;57678;-77
2023/04/03 02:27:46;;;;;;;;;7.00;6.00;;;;;22.50;37.10;101978.44;5019529;28;45475;-77
2023/04/03 02:30:12;;;;;;;;;4.00;4.00;;;;;22.50;37.17;101969.59;5014686;28;46110;-77
2023/04/03 02:32:38;;;;;;;;;5.00;5.00;;;;;22.49;37.13;101974.06;5042743;28;45733;-77
2023/04/03 02:35:03;;;;;;;;;4.75;4.75;;;;;22.50;36.95;101978.44;5029555;28;45465;-77
2023/04/03 02:37:29;;;;;;;;;6.00;6.00;;;;;22.50;37.68;101978.44;5037833;28;45503;-78
2023/04/03 02:39:55;;;;;;;;;5.00;5.00;;;;;22.47;37.45;101970.66;5035990;28;45538;-78
2023/04/03 02:42:20;;;;;;;;;5.00;5.00;;;;;22.49;36.96;101975.88;5027271;28;45281;-77
2023/04/03 02:44:46;;;;;;;;;5.00;5.00;;;;;22.48;37.06;101976.81;5046289;28;69310;-77
2023/04/03 02:47:11;;;;;;;;;6.00;6.00;;;;;22.49;37.21;101975.88;5048647;28;45246;-77
2023/04/03 02:49:37;;;;;;;;;5.50;5.50;;;;;22.44;37.34;101968.16;5034818;28;74581;-77
2023/04/03 02:52:02;;;;;;;;;5.25;4.75;;;;;22.48;37.19;101976.81;5045921;28;69407;-77
2023/04/03 02:54:30;;;;;;;;;4.50;4.50;;;;;22.48;37.51;101974.16;5021150;28;68113;-76
2023/04/03 02:56:55;;;;;;;;;5.75;5.00;;;;;22.49;37.10;101976.75;5034730;28;45365;-76
2023/04/03 02:59:20;;;;;;;;;4.00;4.00;;;;;22.48;36.92;101974.16;5037451;28;70048;-76
2023/04/03 03:01:46;;;;;;;;;6.00;5.00;;;;;22.45;37.02;101975.22;5037267;28;45344;-76
2023/04/03 03:04:11;;;;;;;;;4.25;3.75;;;;;22.48;37.24;101971.50;5050293;28;45334;-76
2023/04/03 03:06:36;;;;;;;;;7.00;7.00;;;;;22.45;37.18;101969.88;5027872;28;45390;-77
2023/04/03 03:09:03;;;;;;;;;4.75;4.00;;;;;22.44;37.03;101965.47;5031358;28;75429;-77
2023/04/03 03:11:28;;;;;;;;;5.50;5.50;;;;;22.46;36.98;101971.56;5031069;28;45376;-77
2023/04/03 03:13:54;;;;;;;;;3.50;3.50;;;;;22.46;36.98;101974.25;5033257;28;45452;-76
2023/04/03 03:16:19;;;;;;;;;3.25;3.25;;;;;22.46;37.01;101970.72;5023406;28;45558;-77
2023/04/03 03:18:45;;;;;;;;;5.25;5.25;;;;;22.46;36.91;101968.91;5030422;28;52770;-79
2023/04/03 03:21:10;;;;;;;;;7.25;4.75;;;;;22.46;37.13;101965.38;5054419;28;45222;-79
2023/04/03 03:23:36;;;;;;;;;4.25;3.75;;;;;22.43;37.50;101961.06;5031092;28;45428;-80
2023/04/03 03:26:06;;;;;;;;;3.75;3.00;;;;;22.48;37.34;101974.16;5032378;28;45426;-80
2023/04/03 03:28:32;;;;;;;;;4.25;3.25;;;;;22.46;36.70;101971.56;5037462;28;45608;-78
2023/04/03 03:30:59;;;;;;;;;2.50;2.50;;;;;22.46;36.73;101971.56;5031961;28;45404;-78
2023/04/03 03:33:25;;;;;;;;;5.50;4.75;;;;;22.46;36.99;101968.91;5047034;28;45939;-78
2023/04/03 03:35:51;;;;;;;;;4.50;4.50;;;;;22.43;36.81;101965.56;5043859;28;45686;-77
2023/04/03 03:38:16;;;;;;;;;6.25;3.25;;;;;22.42;37.05;101963.84;5019672;28;47235;-77
2023/04/03 03:40:41;;;;;;;;;3.50;3.00;;;;;22.46;37.25;101968.06;5020019;28;46029;-77
2023/04/03 03:43:07;;;;;;;;;4.75;4.75;;;;;22.43;37.23;101966.41;5043001;28;55625;-77
2023/04/03 03:45:32;;;;;;;;;4.50;3.50;;;;;22.45;37.04;101964.53;5042613;28;66294;-77
2023/04/03 03:47:58;;;;;;;;;4.00;3.00;;;;;22.43;36.95;101962.88;5047386;28;46072;-77
2023/04/03 03:50:23;;;;;;;;;6.00;3.00;;;;;22.43;36.77;101961.06;5036811;28;49838;-77
2023/04/03 03:52:48;;;;;;;;;3.00;2.25;;;;;22.45;37.01;101969.00;5044246;28;53279;-79
2023/04/03 03:55:14;;;;;;;;;4.25;4.00;;;;;22.43;36.58;101966.41;5037409;28;70330;-78
2023/04/03 03:57:39;;;;;;;;;5.25;4.50;;;;;22.45;36.62;101967.22;5029677;28;45995;-78
2023/04/03 04:00:06;;;;;;;;;4.00;4.00;;;;;22.41;36.72;101964.78;5035780;28;45652;-78
2023/04/03 04:02:32;;;;;;;;;3.25;3.00;;;;;22.42;36.94;101961.19;5026546;28;45515;-78
2023/04/03 04:04:58;;;;;;;;;2.25;2.25;;;;;22.41;36.79;101968.31;5047948;28;46966;-78
2023/04/03 04:07:23;;;;;;;;;4.75;4.00;;;;;22.43;36.91;101969.06;5024098;28;46232;-78
2023/04/03 04:09:48;;;;;;;;;4.25;3.75;;;;;22.44;37.07;101972.63;5033629;28;48770;-79
2023/04/03 04:12:14;;;;;;;;;2.75;2.75;;;;;22.43;36.65;101969.06;5053728;28;45865;-79
2023/04/03 04:14:39;;;;;;;;;3.50;3.25;;;;;22.44;37.17;101967.28;5047833;28;45389;-79
2023/04/03 04:17:05;;;;;;;;;3.00;2.00;;;;;22.44;36.80;101967.28;5022881;28;46184;-79
2023/04/03 04:19:30;;;;;;;;;3.75;3.25;;;;;22.42;36.93;101954.03;5030909;28;45391;-77
2023/04/03 04:21:55;;;;;;;;;4.00;2.25;;;;;22.41;37.01;101954.13;5043262;28;45282;-78
2023/04/03 04:24:22;;;;;;;;;4.75;2.25;;;;;22.42;36.71;101962.03;5039638;28;61365;-78
2023/04/03 04:26:48;;;;;;;;;4.25;3.75;;;;;22.42;36.47;101967.38;5033114;28;46336;-77
2023/04/03 04:29:13;;;;;;;;;2.50;2.50;;;;;22.40;36.87;101955.94;5032621;28;45909;-77
2023/04/03 04:31:38;;;;;;;;;2.75;2.75;;;;;22.40;36.49;101963.06;5032457;28;45416;-77
2023/04/03 04:34:04;;;;;;;;;2.00;2.00;;;;;22.42;36.99;101963.84;5013932;28;59917;-77
2023/04/03 04:36:29;;;;;;;;;4.25;2.75;;;;;22.41;36.50;101962.13;5028604;28;45411;-77
2023/04/03 04:38:55;;;;;;;;;2.75;2.50;;;;;22.40;36.71;101965.72;5039901;28;45567;-77
2023/04/03 04:41:22;;;;;;;;;5.00;3.00;;;;;22.42;36.80;101966.53;5022412;28;45520;-77
2023/04/03 04:43:51;;;;;;;;;3.50;2.50;;;;;22.41;36.57;101962.97;5032021;28;45486;-77
2023/04/03 04:46:16;;;;;;;;;3.75;2.25;;;;;22.40;36.66;101963.06;5025869;28;45313;-77
2023/04/03 04:48:41;;;;;;;;;4.75;3.50;;;;;22.42;36.70;101970.03;5033550;28;51890;-77
2023/04/03 04:51:07;;;;;;;;;2.25;1.75;;;;;22.37;36.33;101967.63;5032388;28;45887;-78
2023/04/03 04:53:33;;;;;;;;;3.75;3.75;;;;;22.33;36.70;101955.44;5033856;28;45371;-78
2023/04/03 04:55:58;;;;;;;;;2.25;2.00;;;;;22.38;36.56;101968.47;5025998;28;45434;-78
2023/04/03 04:58:24;;;;;;;;;3.50;3.00;;;;;22.41;36.58;101972.78;5039927;28;45836;-78
2023/04/03 05:00:49;;;;;;;;;3.25;3.25;;;;;22.40;36.47;101974.59;5032244;28;45528;-78
2023/04/03 05:03:15;;;;;;;;;2.25;2.25;;;;;22.37;36.83;101972.97;5020824;28;45679;-78
2023/04/03 05:05:40;;;;;;;;;4.50;3.25;;;;;22.41;36.39;101981.66;5031358;28;66169;-77
2023/04/03 05:08:05;;;;;;;;;2.75;2.00;;;;;22.39;36.45;101982.69;5038050;28;71843;-78
2023/04/03 05:10:31;;;;;;;;;3.00;3.00;;;;;22.40;36.57;101984.41;5029521;28;45427;-77
2023/04/03 05:12:57;;;;;;;;;3.50;3.50;;;;;22.39;36.67;101986.22;5021323;28;45611;-76
2023/04/03 05:15:22;;;;;;;;;2.50;2.50;;;;;22.39;36.97;101980.03;5024484;28;45468;-77
2023/04/03 05:17:48;;;;;;;;;2.25;1.25;;;;;22.39;36.62;101986.22;5041898;28;45309;-77
2023/04/03 05:20:13;;;;;;;;;4.00;3.00;;;;;22.40;36.72;101976.41;5019482;28;45731;-77
2023/04/03 05:22:39;;;;;;;;;2.25;2.25;;;;;22.39;36.86;101980.88;5020510;28;46048;-77
2023/04/03 05:25:05;;;;;;;;;3.00;3.00;;;;;22.33;36.75;101975.91;5030866;28;45547;-77
2023/04/03 05:27:30;;;;;;;;;2.50;2.25;;;;;22.36;36.59;101981.94;5048388;28;45353;-76
2023/04/03 05:29:55;;;;;;;;;2.00;2.00;;;;;22.35;36.26;101980.19;5044119;28;66005;-76
2023/04/03 05:32:25;;;;;;;;;3.50;3.00;;;;;22.36;36.79;101983.72;5021007;28;47052;-76
2023/04/03 05:34:51;;;;;;;;;3.00;3.00;;;;;22.36;36.49;101981.03;5024271;28;47246;-74
2023/04/03 05:37:17;;;;;;;;;3.75;3.75;;;;;22.37;36.84;101994.31;5041674;28;45468;-83
2023/04/03 05:39:42;;;;;;;;;14.00;11.25;;;;;22.34;36.25;101988.28;5019564;28;45321;-79
2023/04/03 05:42:08;;;;;;;;;17.50;9.00;;;;;22.30;35.74;101984.06;5035772;28;45470;-78
2023/04/03 05:44:33;;;;;;;;;10.25;8.50;;;;;22.26;36.03;101991.34;5031388;28;47304;-85
2023/04/03 05:46:59;;;;;;;;;9.50;8.75;;;;;22.23;35.78;101990.66;5031412;28;64708;-84
2023/04/03 05:49:24;;;;;;;;;9.75;7.00;;;;;22.21;35.55;101990.75;5033336;28;45711;-83
2023/04/03 05:51:51;;;;;;;;;6.25;6.25;;;;;22.19;35.79;101996.16;5028297;28;45962;-84
2023/04/03 05:54:27;;;;;;;;;7.25;7.25;;;;;22.14;35.71;101989.38;5052673;28;45555;-76
2023/04/03 05:56:53;;;;;;;;;8.00;6.25;;;;;22.12;35.57;101992.13;5028655;28;46414;-83
2023/04/03 05:59:19;;;;;;;;;5.50;5.25;;;;;22.11;35.57;101987.72;5041054;28;45480;-84
2023/04/03 06:01:45;;;;;;;;;6.25;6.00;;;;;22.11;35.71;101997.53;5023927;28;45852;-78
2023/04/03 06:04:12;;;;;;;;;9.00;7.50;;;;;22.06;35.50;101987.16;5024612;28;47548;-77
2023/04/03 06:06:45;;;;;;;;;12.50;9.00;;;;;22.04;35.44;101989.00;5017820;28;45445;-85
2023/04/03 06:09:10;;;;;;;;;6.00;6.00;;;;;22.05;35.19;101995.22;5039854;28;45400;-83
2023/04/03 06:11:35;;;;;;;;;8.75;5.50;;;;;22.02;35.39;101993.56;5047792;28;45435;-86
2023/04/03 06:14:01;;;;;;;;;6.25;5.75;;;;;22.02;34.86;102003.38;5016914;28;48099;-88
2023/04/03 06:16:26;;;;;;;;;4.25;4.25;;;;;22.02;34.86;101998.91;5036256;28;45364;-86
2023/04/03 06:18:52;;;;;;;;;6.00;6.00;;;;;22.02;35.38;102001.56;5024419;28;45508;-83
2023/04/03 06:21:17;;;;;;;;;4.75;4.75;;;;;22.02;34.77;101995.41;5037403;28;54078;-84
2023/04/03 06:23:42;;;;;;;;;4.25;3.50;;;;;22.02;35.07;101998.06;5010579;28;46132;-82
2023/04/03 06:26:08;;;;;;;;;7.00;4.75;;;;;22.03;35.14;102000.63;5028678;28;47952;-82
2023/04/03 06:28:33;;;;;;;;;4.00;4.00;;;;;22.03;34.87;101995.31;5034145;28;65456;-78
2023/04/03 06:30:59;;;;;;;;;5.00;3.00;;;;;22.03;34.86;101989.97;5012191;28;63970;-80
2023/04/03 06:33:24;;;;;;;;;3.25;3.25;;;;;22.04;35.33;101997.00;5052033;28;45506;-74
2023/04/03 06:35:50;;;;;;;;;4.50;4.00;;;;;22.08;34.97;102005.69;5017632;28;65472;-79
2023/04/03 06:38:15;;;;;;;;;6.50;4.00;;;;;22.07;35.22;102010.19;5022917;28;45539;-79
2023/04/03 06:40:41;;;;;;;;;5.00;3.25;;;;;22.09;35.05;102010.09;5016041;28;45467;-73
2023/04/03 06:43:07;;;;;;;;;3.00;3.00;;;;;22.11;35.08;102002.88;5046769;28;46061;-85
2023/04/03 06:45:32;;;;;;;;;3.00;3.00;;;;;22.14;35.44;102008.91;5030762;28;46569;-90
2023/04/03 06:47:58;;;;;;;;;3.00;3.00;;;;;22.14;35.55;102003.56;5021270;28;54712;-85
2023/04/03 06:50:23;;;;;;;;;6.00;3.00;;;;;22.15;35.48;102004.41;5024895;28;61374;-83
2023/04/03 06:52:48;;;;;;;;;2.50;2.50;;;;;22.19;35.55;102012.16;5052492;28;45408;-84
2023/04/03 06:55:14;;;;;;;;;2.00;1.75;;;;;22.21;35.39;102009.41;5018906;28;65814;-83
2023/04/03 06:57:39;;;;;;;;;4.75;3.50;;;;;22.21;35.47;102003.25;5038714;28;45571;-76
2023/04/03 07:00:07;;;;;;;;;3.25;3.00;;;;;22.21;35.39;101997.91;5038215;28;45520;-76
2023/04/03 07:02:32;;;;;;;;;4.00;3.00;;;;;22.27;35.76;102006.44;5016576;28;46750;-82
2023/04/03 07:04:58;;;;;;;;;3.00;3.00;;;;;22.28;35.63;102007.31;5039831;28;46138;-81
2023/04/03 07:07:23;;;;;;;;;3.75;3.75;;;;;22.29;35.51;101999.22;5031400;28;65752;-77
2023/04/03 07:09:49;;;;;;;;;4.50;4.00;;;;;22.31;35.56;102007.13;5048613;28;46103;-83
2023/04/03 07:12:15;;;;;;;;;4.00;3.00;;;;;22.33;35.74;102003.44;5032270;28;45979;-83
2023/04/03 07:14:41;;;;;;;;;3.25;3.00;;;;;22.34;35.54;101998.94;5033978;28;45991;-81
2023/04/03 07:17:06;;;;;;;;;3.25;3.25;;;;;22.36;36.05;102003.25;5042203;28;45454;-77
2023/04/03 07:19:32;;;;;;;;;5.50;4.00;;;;;22.39;35.73;101999.56;5036916;28;45607;-76
2023/04/03 07:21:57;;;;;;;;;4.00;2.50;;;;;22.42;35.59;102003.88;5031908;28;65458;-76
2023/04/03 07:24:23;;;;;;;;;4.00;3.00;;;;;22.44;35.73;102008.16;5025397;28;67603;-76
2023/04/03 07:26:52;;;;;;;;;2.00;2.00;;;;;22.46;36.09;102006.25;5031506;28;62270;-76
2023/04/03 07:29:17;;;;;;;;;3.00;3.00;;;;;22.42;36.13;101995.88;5035154;28;45432;-76
2023/04/03 07:31:44;;;;;;;;;6.25;2.75;;;;;22.49;35.71;102005.25;5036049;28;45960;-70
2023/04/03 07:34:10;;;;;;;;;3.25;3.00;;;;;22.49;36.03;102000.75;5036667;28;46053;-71
2023/04/03 07:36:36;;;;;;;;;4.50;3.00;;;;;22.51;35.66;102006.00;5023867;28;45410;-74
2023/04/03 07:39:01;;;;;;;;;5.75;3.75;;;;;22.54;36.08;102009.34;5037968;28;47191;-75
2023/04/03 07:41:26;;;;;;;;;4.50;2.25;;;;;22.56;36.24;102007.47;5025089;28;46441;-69
2023/04/03 07:43:52;;;;;;;;;4.00;2.25;;;;;22.58;36.25;102006.53;5049145;28;49402;-76
2023/04/03 07:46:18;;;;;;;;;3.25;3.25;;;;;22.60;36.25;102002.81;5047317;28;45384;-75
2023/04/03 07:48:44;;;;;;;;;4.00;4.00;;;;;22.62;36.40;102011.56;5027806;28;45488;-77
2023/04/03 07:51:10;;;;;;;;;5.25;3.00;;;;;22.66;36.20;102014.94;5015963;28;47122;-71
2023/04/03 07:53:35;;;;;;;;;3.00;3.00;;;;;22.70;36.18;102013.78;5021778;28;45422;-73
2023/04/03 07:56:02;;;;;;;;;4.50;4.50;;;;;22.73;35.95;102013.63;5029920;28;47588;-69
2023/04/03 07:58:28;;;;;;;;;5.50;3.25;;;;;22.75;36.31;102017.94;5034844;28;45783;-71
2023/04/03 08:00:53;;;;;;;;;4.75;4.50;;;;;22.73;36.09;102014.50;5032976;28;48212;-72
2023/04/03 08:03:19;;;;;;;;;3.25;2.75;;;;;22.77;35.99;102016.97;5039135;28;45451;-72
2023/04/03 08:05:46;;;;;;;;;4.75;3.00;;;;;22.79;36.22;102021.28;5031758;28;45478;-72
2023/04/03 08:08:15;;;;;;;;;3.50;3.50;;;;;22.83;36.63;102019.28;5020479;28;45537;-82
2023/04/03 08:10:41;;;;;;;;;3.50;2.50;;;;;22.84;36.34;102027.22;5037988;28;45449;-87
2023/04/03 08:13:07;;;;;;;;;4.75;2.00;;;;;22.85;36.23;102022.72;5036557;28;45417;-77
2023/04/03 08:15:33;;;;;;;;;5.00;2.00;;;;;22.85;36.75;102015.56;5031961;28;45472;-76
2023/04/03 08:17:59;;;;;;;;;2.25;2.25;;;;;22.89;36.24;102026.94;5049477;28;45689;-75
2023/04/03 08:20:25;;;;;;;;;3.75;3.75;;;;;22.90;36.20;102023.31;5045131;28;46146;-74
2023/04/03 08:22:50;;;;;;;;;2.50;2.25;;;;;22.90;36.39;102023.31;5056302;28;45740;-75
2023/04/03 08:25:17;;;;;;;;;3.75;3.75;;;;;22.94;36.34;102016.84;5046069;28;45476;-72
2023/04/03 08:27:42;;;;;;;;;4.25;3.50;;;;;22.94;36.52;102022.19;5062390;28;45406;-72
2023/04/03 08:30:08;;;;;;;;;4.00;3.00;;;;;22.98;36.19;102025.53;5057442;28;46187;-75
2023/04/03 08:32:35;;;;;;;;;3.00;2.50;;;;;22.98;36.12;102017.53;5019647;28;45893;-78
2023/04/03 08:35:01;;;;;;;;;1.75;1.25;;;;;22.99;35.95;102016.59;5034547;28;45437;-75
2023/04/03 08:37:26;;;;;;;;;2.25;2.25;;;;;23.00;36.29;102024.50;5038541;28;45411;-71
2023/04/03 08:39:51;;;;;;;;;4.25;3.00;;;;;23.02;36.14;102021.72;5052786;28;45469;-76
2023/04/03 08:42:23;;;;;;;;;3.00;3.00;;;;;;;;5027665;28;45827;-75
2023/04/03 08:45:10;;;;;;;;;3.00;3.00;;;;;23.05;36.20;102019.75;5039741;28;45480;-73
2023/04/03 08:47:42;;;;;;;;;3.25;2.25;;;;;;;;5016437;28;45530;-75
2023/04/03 08:50:14;;;;;;;;;3.00;3.00;;;;;23.03;36.21;102010.94;5052941;28;45621;-74
2023/04/03 08:52:42;;;;;;;;;4.25;2.00;;;;;23.08;35.78;102011.56;5025948;28;45510;-72
2023/04/03 08:55:26;;;;;;;;;2.00;2.00;;;;;23.09;36.08;102010.63;5038085;28;45466;-73
2023/04/03 08:58:22;;;;;;;;;2.00;2.00;;;;;23.10;35.89;102016.81;5041484;28;45263;-75
2023/04/03 09:00:49;;;;;;;;;5.00;2.00;;;;;23.10;36.40;102016.81;5029597;28;46316;-73
2023/04/03 09:03:17;;;;;;;;;2.00;2.00;;;;;23.10;35.92;102016.81;5036982;28;45602;-81
2023/04/03 09:06:04;;;;;;;;;1.75;1.75;;;;;23.14;35.89;102026.38;5039049;28;45424;-85
2023/04/03 09:08:47;;;;;;;;;0.25;0.25;;;;;23.14;36.05;102021.03;5051671;28;45448;-82
2023/04/03 09:11:28;;;;;;;;;4.00;2.75;;;;;23.14;36.11;102026.38;5050581;28;45380;-76
2023/04/03 09:14:34;;;;;;;;;2.50;2.25;;;;;23.16;36.04;102016.47;5023263;28;45990;-78
2023/04/03 09:17:02;;;;;;;;;3.50;2.75;;;;;23.13;36.24;102020.19;5043238;28;45427;-72
2023/04/03 09:19:31;;;;;;;;;2.00;1.00;;;;;23.16;35.77;102013.81;5040221;28;45556;-72
2023/04/03 09:22:13;;;;;;;;;5.00;2.00;;;;;23.18;36.18;102016.34;5029653;28;47218;-80
2023/04/03 09:24:40;;;;;;;;;1.75;1.25;;;;;23.18;36.03;102022.59;5037984;28;45749;-74
2023/04/03 09:27:09;;;;;;;;;5.75;1.50;;;;;23.18;35.73;102019.03;5020074;28;45721;-77
2023/04/03 09:29:39;;;;;;;;;2.25;2.25;;;;;23.18;35.75;102013.69;5033024;28;45586;-73
2023/04/03 09:32:19;;;;;;;;;2.75;2.75;;;;;23.19;35.79;102012.75;5026757;28;46311;-70
2023/04/03 09:34:45;;;;;;;;;1.00;0.75;;;;;23.20;35.60;102014.47;5032322;28;45456;-73
2023/04/03 09:37:38;;;;;;;;;1.50;1.50;;;;;23.20;35.67;102006.47;5034936;28;69300;-76
2023/04/03 09:40:05;;;;;;;;;1.50;1.25;;;;;23.18;36.01;102008.34;5039040;28;45583;-76
2023/04/03 09:42:32;;;;;;;;;1.00;1.00;;;;;23.18;35.57;102009.22;5025309;28;47211;-72
2023/04/03 09:45:18;;;;;;;;;2.50;1.25;;;;;23.21;35.78;102018.84;5045983;28;45435;-73
2023/04/03 09:47:44;;;;;;;;;1.25;1.25;;;;;23.19;35.67;102012.75;5033007;28;45297;-71
2023/04/03 09:50:12;;;;;;;;;0.50;0.50;;;;;23.21;35.67;102019.72;5035599;28;45603;-72
2023/04/03 09:52:39;;;;;;;;;0.50;0.50;;;;;23.21;35.70;102016.19;5040619;28;46332;-74
2023/04/03 09:55:14;;;;;;;;;4.00;2.00;;;;;23.23;35.62;102011.59;5031312;28;45317;-74
2023/04/03 09:57:43;;;;;;;;;2.00;1.50;;;;;23.22;35.84;102007.22;5044067;28;45633;-73
2023/04/03 10:00:34;;;;;;;;;2.00;2.00;;;;;23.24;35.69;102008.00;5031299;28;45419;-76
2023/04/03 10:02:59;;;;;;;;;2.00;1.25;;;;;23.24;35.50;102003.50;5017702;28;45690;-76
2023/04/03 10:05:27;;;;;;;;;0.50;0.50;;;;;23.25;35.64;102012.41;5037730;28;45401;-78
2023/04/03 10:08:07;;;;;;;;;1.00;1.00;;;;;23.26;35.84;102008.75;5043655;28;45362;-76
2023/04/03 10:10:33;;;;;;;;;1.00;1.00;;;;;23.26;35.22;102006.09;5013640;28;45754;-73
2023/04/03 10:13:12;;;;;;;;;1.25;1.00;;;;;23.26;35.54;102008.75;5034834;28;45365;-76
2023/04/03 10:16:01;;;;;;;;;1.00;1.00;;;;;23.28;35.68;101990.81;5037329;28;45714;-77
2023/04/03 10:18:41;;;;;;;;;2.25;1.25;;;;;23.27;35.64;101989.97;5055591;28;45580;-72
2023/04/03 10:21:15;;;;;;;;;2.75;1.25;;;;;23.27;35.66;101991.78;5038016;28;45778;-77
2023/04/03 10:23:57;;;;;;;;;1.25;1.25;;;;;23.25;35.36;101973.19;5031361;28;45510;-91
2023/04/03 10:26:37;;;;;;;;;3.25;0.75;;;;;23.30;35.87;101979.09;5021870;28;45436;-81
2023/04/03 10:29:31;;;;;;;;;3.00;2.25;;;;;23.32;35.77;101976.34;5028262;28;46334;-88
2023/04/03 10:32:15;;;;;;;;;2.00;1.75;;;;;23.34;35.47;101974.44;5012955;28;45384;-71
2023/04/03 10:34:43;;;;;;;;;2.25;2.25;;;;;23.33;35.21;101978.06;5048152;28;45670;-71
2023/04/03 10:37:24;;;;;;;;;1.25;1.25;;;;;23.34;35.62;101976.22;5025634;28;45740;-71
2023/04/03 10:40:03;;;;;;;;;2.75;1.00;;;;;23.33;35.51;101971.84;5030358;28;45437;-71
2023/04/03 10:42:38;;;;;;;;;1.75;1.75;;;;;23.31;35.18;101969.28;5052629;28;45210;-74
2023/04/03 10:45:28;;;;;;;;;2.00;2.00;;;;;23.31;35.16;101971.94;5034600;28;45474;-74
2023/04/03 10:48:15;;;;;;;;;3.00;1.75;;;;;23.29;35.44;101971.19;5039990;28;45352;-74
2023/04/03 10:50:54;;;;;;;;;1.25;1.25;;;;;23.27;35.26;101957.91;5054283;28;45498;-71
2023/04/03 10:53:23;;;;;;;;;1.25;1.25;;;;;23.27;35.39;101954.41;5035597;28;45506;-72
2023/04/03 10:55:59;;;;;;;;;1.25;1.25;;;;;23.22;35.31;101949.31;5022323;28;47497;-68
2023/04/03 10:58:51;;;;;;;;;2.00;2.00;;;;;23.25;34.93;101954.50;5040966;28;45419;-71
2023/04/03 11:01:20;;;;;;;;;1.00;1.00;;;;;23.22;35.26;101943.97;5000415;28;45479;-71
2023/04/03 11:03:53;;;;;;;;;1.25;1.25;;;;;23.24;34.91;101951.91;5036813;28;45294;-74
2023/04/03 11:06:19;;;;;;;;;3.50;1.25;;;;;23.23;35.20;101936.81;5025390;28;47191;-70
2023/04/03 11:08:59;;;;;;;;;0.75;0.75;;;;;23.25;35.35;101940.28;5056829;28;45882;-72
2023/04/03 11:11:27;;;;;;;;;1.25;1.25;;;;;23.24;35.38;101949.22;5039719;28;45478;-75
2023/04/03 11:14:08;;;;;;;;;0.75;0.25;;;;;23.25;35.51;101929.59;5020914;28;45364;-87
2023/04/03 11:16:38;;;;;;;;;0.25;0.25;;;;;23.25;35.54;101934.94;5026406;28;45542;-81
2023/04/03 11:19:38;;;;;;;;;1.00;1.00;;;;;23.28;35.60;101937.41;5037527;28;45349;-86
2023/04/03 11:22:24;;;;;;;;;1.00;1.00;;;;;23.29;35.47;101937.31;5034081;28;45481;-87
2023/04/03 11:25:08;;;;;;;;;2.75;1.25;;;;;23.29;35.52;101939.13;5041156;28;45496;-78
2023/04/03 11:27:41;;;;;;;;;1.25;1.25;;;;;23.29;35.66;101926.63;5047198;28;45214;-77
2023/04/03 11:30:17;;;;;;;;;1.25;1.25;;;;;23.31;35.72;101938.06;5019569;28;45487;-77